Valley Springs, South Dakota
Current Conditions -  °F | °C
As of 2:34 PM on Friday 21 Nov 2014 (Local Time) from KLYV Reporting Station
Clear Clear  
Wind Chill: 21°   Ceiling: Unl
Heat Index: 32°   Visibility: 10mi
Dew Point: 27°   Wind: 16mph
Humidity: 80%   Direction: 180°S
Pressure: 29.94"   Gusts: 25mph
Location:  43.58°N, 96.47°W
Report Text: KLYV 212034Z AUTO 18014G22KT 10SM CLR 00/M03 A2994 RMK AO2
Loading
Personal Weather Stations






























Interactive Weather Map New forecast layout! Learn more

10-Day Weather Forecast

Advertisements
Track Severe Weather on mobile